createdAt,value
2018-01-17T00:00:08.575Z,0
2018-01-17T00:01:30.273Z,0
2018-01-17T00:02:52.194Z,0
2018-01-17T00:04:14.546Z,0
2018-01-17T00:05:36.725Z,0
2018-01-17T00:06:58.873Z,0
2018-01-17T00:08:20.826Z,0
2018-01-17T00:09:42.412Z,0
2018-01-17T00:11:04.253Z,0
2018-01-17T00:12:26.120Z,0
2018-01-17T00:13:47.717Z,0
2018-01-17T00:15:09.845Z,0
2018-01-17T00:16:31.697Z,0
2018-01-17T00:17:53.814Z,0
2018-01-17T00:19:15.945Z,0
2018-01-17T00:20:37.783Z,0
2018-01-17T00:22:00.005Z,0
2018-01-17T00:23:22.136Z,0
2018-01-17T00:24:44.007Z,0
2018-01-17T00:26:05.980Z,0
2018-01-17T00:27:27.610Z,0
2018-01-17T00:28:49.258Z,0
2018-01-17T00:30:10.993Z,0
2018-01-17T00:31:32.851Z,0
2018-01-17T00:32:54.655Z,0
2018-01-17T00:34:16.960Z,0
2018-01-17T00:35:39.092Z,0
2018-01-17T00:37:00.691Z,0
2018-01-17T00:38:22.277Z,0
2018-01-17T00:39:43.879Z,0
2018-01-17T00:41:06.064Z,0
2018-01-17T00:42:27.399Z,0
2018-01-17T00:43:49.082Z,0
2018-01-17T00:45:11.224Z,0
2018-01-17T00:46:33.358Z,0
2018-01-17T00:47:55.473Z,0
2018-01-17T00:49:17.589Z,0
2018-01-17T00:50:39.432Z,0
2018-01-17T00:52:01.295Z,0
2018-01-17T00:53:23.143Z,0
2018-01-17T00:54:44.866Z,0
2018-01-17T00:56:07.217Z,0
2018-01-17T00:57:28.932Z,0
2018-01-17T00:58:50.535Z,0
2018-01-17T01:00:12.661Z,0
2018-01-17T01:01:34.534Z,0
2018-01-17T01:02:56.722Z,0
2018-01-17T01:04:18.385Z,0
2018-01-17T01:05:40.558Z,0
2018-01-17T01:07:02.303Z,0
2018-01-17T01:08:23.903Z,0
2018-01-17T01:09:45.743Z,0
2018-01-17T01:11:07.592Z,0
2018-01-17T01:12:29.644Z,0
2018-01-17T01:13:51.746Z,0
2018-01-17T01:15:13.947Z,0
2018-01-17T01:16:35.943Z,0
2018-01-17T01:17:57.564Z,0
2018-01-17T01:19:19.427Z,0
2018-01-17T01:20:41.530Z,0
2018-01-17T01:22:03.812Z,0
2018-01-17T01:23:25.494Z,0
2018-01-17T01:24:47.355Z,0
2018-01-17T01:26:08.962Z,0
2018-01-17T01:27:31.027Z,0
2018-01-17T01:28:52.705Z,0
2018-01-17T01:30:14.567Z,0
2018-01-17T01:31:35.663Z,0
2018-01-17T01:32:58.034Z,0
2018-01-17T01:34:19.904Z,0
2018-01-17T01:35:41.796Z,0
2018-01-17T01:37:03.382Z,0
2018-01-17T01:38:25.243Z,0
2018-01-17T01:39:46.336Z,0
2018-01-17T01:41:08.446Z,0
2018-01-17T01:42:30.042Z,0
2018-01-17T01:43:51.902Z,0
2018-01-17T01:45:13.229Z,0
2018-01-17T01:46:34.834Z,0
2018-01-17T01:47:56.684Z,0
2018-01-17T01:49:18.954Z,0
2018-01-17T01:50:40.819Z,0
2018-01-17T01:52:01.986Z,0
2018-01-17T01:53:24.124Z,0
2018-01-17T01:54:46.309Z,0
2018-01-17T01:56:08.181Z,0
2018-01-17T01:57:30.241Z,0
2018-01-17T01:58:52.257Z,0
2018-01-17T02:00:14.384Z,0
2018-01-17T02:01:36.314Z,0
2018-01-17T02:02:58.041Z,0
2018-01-17T02:04:20.155Z,0
2018-01-17T02:05:42.280Z,0
2018-01-17T02:07:04.440Z,0
2018-01-17T02:08:26.046Z,0
2018-01-17T02:09:48.139Z,0
2018-01-17T02:11:10.007Z,0
2018-01-17T02:12:31.352Z,0
2018-01-17T02:13:53.245Z,0
2018-01-17T02:15:15.100Z,0
2018-01-17T02:16:37.020Z,0
2018-01-17T02:17:58.405Z,0
2018-01-17T02:19:20.492Z,0
2018-01-17T02:20:42.601Z,0
2018-01-17T02:22:04.734Z,0
2018-01-17T02:23:26.383Z,0
2018-01-17T02:24:48.683Z,0
2018-01-17T02:26:10.010Z,0
2018-01-17T02:27:32.157Z,0
2018-01-17T02:28:53.738Z,0
2018-01-17T02:30:15.606Z,0
2018-01-17T02:31:37.469Z,0
2018-01-17T02:32:59.695Z,0
2018-01-17T02:34:21.275Z,0
2018-01-17T02:35:43.241Z,0
2018-01-17T02:37:04.834Z,0
2018-01-17T02:38:26.698Z,0
2018-01-17T02:39:48.553Z,0
2018-01-17T02:41:10.485Z,0
2018-01-17T02:42:32.091Z,0
2018-01-17T02:43:54.384Z,0
2018-01-17T02:45:16.335Z,0
2018-01-17T02:46:37.930Z,0
2018-01-17T02:47:59.815Z,0
2018-01-17T02:49:21.415Z,0
2018-01-17T02:50:43.020Z,0
2018-01-17T02:52:04.655Z,0
2018-01-17T02:53:26.498Z,0
2018-01-17T02:54:48.407Z,0
2018-01-17T02:56:10.521Z,0
2018-01-17T02:57:32.645Z,0
2018-01-17T02:58:54.504Z,0
2018-01-17T03:00:16.095Z,0
2018-01-17T03:01:37.696Z,0
2018-01-17T03:02:59.288Z,0
2018-01-17T03:04:20.876Z,0
2018-01-17T03:05:42.912Z,0
2018-01-17T03:07:04.304Z,0
2018-01-17T03:08:25.693Z,0
2018-01-17T03:09:47.293Z,0
2018-01-17T03:11:09.661Z,0
2018-01-17T03:12:31.264Z,0
2018-01-17T03:13:53.335Z,0
2018-01-17T03:15:15.439Z,0
2018-01-17T03:16:37.338Z,0
2018-01-17T03:17:59.298Z,0
2018-01-17T03:19:20.380Z,0
2018-01-17T03:20:42.247Z,0
2018-01-17T03:22:04.420Z,0
2018-01-17T03:23:26.019Z,0
2018-01-17T03:24:48.213Z,0
2018-01-17T03:26:10.241Z,0
2018-01-17T03:27:32.338Z,0
2018-01-17T03:28:54.184Z,0
2018-01-17T03:30:16.115Z,0
2018-01-17T03:31:37.714Z,0
2018-01-17T03:32:59.825Z,0
2018-01-17T03:34:21.956Z,0
2018-01-17T03:35:44.059Z,0
2018-01-17T03:37:05.650Z,0
2018-01-17T03:38:27.555Z,0
2018-01-17T03:39:49.704Z,0
2018-01-17T03:41:11.100Z,0
2018-01-17T03:42:33.034Z,0
2018-01-17T03:43:55.121Z,0
2018-01-17T03:45:16.454Z,0
2018-01-17T03:46:38.294Z,0
2018-01-17T03:47:59.886Z,0
2018-01-17T03:49:21.741Z,0
2018-01-17T03:50:43.588Z,0
2018-01-17T03:52:05.727Z,0
2018-01-17T03:53:27.726Z,0
2018-01-17T03:54:49.724Z,0
2018-01-17T03:56:11.570Z,0
2018-01-17T03:57:33.511Z,0
2018-01-17T03:58:55.425Z,0
2018-01-17T04:00:16.913Z,0
2018-01-17T04:01:38.343Z,0
2018-01-17T04:03:00.296Z,0
2018-01-17T04:04:21.930Z,0
2018-01-17T04:05:43.787Z,0
2018-01-17T04:07:05.110Z,0
2018-01-17T04:08:26.244Z,0
2018-01-17T04:09:47.873Z,0
2018-01-17T04:11:09.485Z,0
2018-01-17T04:12:31.588Z,0
2018-01-17T04:13:53.174Z,0
2018-01-17T04:15:15.027Z,0
2018-01-17T04:16:36.111Z,0
2018-01-17T04:17:57.489Z,0
2018-01-17T04:19:19.343Z,0
2018-01-17T04:20:40.990Z,0
2018-01-17T04:22:01.809Z,0
2018-01-17T04:23:23.432Z,0
2018-01-17T04:24:45.275Z,0
2018-01-17T04:26:06.602Z,0
2018-01-17T04:27:28.723Z,0
2018-01-17T04:28:49.901Z,0
2018-01-17T04:30:10.976Z,0
2018-01-17T04:31:32.551Z,0
2018-01-17T04:32:54.173Z,0
2018-01-17T04:34:16.288Z,0
2018-01-17T04:35:38.502Z,0
2018-01-17T04:37:00.477Z,0
2018-01-17T04:38:22.479Z,0
2018-01-17T04:39:44.105Z,0
2018-01-17T04:41:05.975Z,0
2018-01-17T04:42:28.106Z,0
2018-01-17T04:43:49.673Z,0
2018-01-17T04:45:11.327Z,0
2018-01-17T04:46:33.162Z,0
2018-01-17T04:47:54.786Z,0
2018-01-17T04:49:16.664Z,0
2018-01-17T04:50:38.003Z,0
2018-01-17T04:51:59.853Z,0
2018-01-17T04:53:21.459Z,0
2018-01-17T04:54:43.294Z,0
2018-01-17T04:56:05.152Z,0
2018-01-17T04:57:27.004Z,0
2018-01-17T04:58:48.084Z,0
2018-01-17T05:00:10.054Z,0
2018-01-17T05:01:31.685Z,0
2018-01-17T05:02:53.543Z,0
2018-01-17T05:04:15.422Z,0
2018-01-17T05:05:37.552Z,0
2018-01-17T05:06:58.893Z,0
2018-01-17T05:08:20.215Z,0
2018-01-17T05:09:42.333Z,0
2018-01-17T05:11:04.198Z,0
2018-01-17T05:12:26.064Z,0
2018-01-17T05:13:48.404Z,0
2018-01-17T05:15:09.801Z,0
2018-01-17T05:16:31.686Z,0
2018-01-17T05:17:53.818Z,0
2018-01-17T05:19:15.413Z,0
2018-01-17T05:20:36.501Z,0
2018-01-17T05:21:58.172Z,0
2018-01-17T05:23:20.140Z,0
2018-01-17T05:24:41.989Z,0
2018-01-17T05:26:03.609Z,0
2018-01-17T05:27:25.464Z,0
2018-01-17T05:28:47.678Z,0
2018-01-17T05:30:09.534Z,0
2018-01-17T05:31:31.949Z,0
2018-01-17T05:32:53.551Z,0
2018-01-17T05:34:15.395Z,0
2018-01-17T05:35:37.032Z,0
2018-01-17T05:36:59.162Z,0
2018-01-17T05:38:20.770Z,0
2018-01-17T05:39:42.363Z,0
2018-01-17T05:41:04.544Z,0
2018-01-17T05:42:26.538Z,0
2018-01-17T05:43:48.496Z,0
2018-01-17T05:45:10.607Z,0
2018-01-17T05:46:32.502Z,0
2018-01-17T05:47:53.843Z,0
2018-01-17T05:49:15.711Z,0
2018-01-17T05:50:37.726Z,0
2018-01-17T05:51:59.662Z,0
2018-01-17T05:53:21.281Z,0
2018-01-17T05:54:42.654Z,0
2018-01-17T05:56:04.758Z,0
2018-01-17T05:57:26.382Z,0
2018-01-17T05:58:48.279Z,0
2018-01-17T06:00:10.137Z,0
2018-01-17T06:01:32.038Z,0
2018-01-17T06:02:53.830Z,0
2018-01-17T06:04:15.743Z,0
2018-01-17T06:05:37.214Z,0
2018-01-17T06:06:59.194Z,0
2018-01-17T06:08:21.295Z,0
2018-01-17T06:09:42.902Z,0
2018-01-17T06:11:05.222Z,0
2018-01-17T06:12:27.320Z,0
2018-01-17T06:13:49.496Z,0
2018-01-17T06:15:11.356Z,0
2018-01-17T06:16:33.218Z,0
2018-01-17T06:17:54.558Z,0
2018-01-17T06:19:16.148Z,0
2018-01-17T06:20:37.764Z,0
2018-01-17T06:21:59.636Z,0
2018-01-17T06:23:21.484Z,0
2018-01-17T06:24:43.112Z,0
2018-01-17T06:26:05.235Z,0
2018-01-17T06:27:27.192Z,0
2018-01-17T06:28:49.503Z,0
2018-01-17T06:30:11.112Z,0
2018-01-17T06:31:32.729Z,0
2018-01-17T06:32:54.589Z,0
2018-01-17T06:34:16.455Z,0
2018-01-17T06:35:38.188Z,0
2018-01-17T06:37:00.183Z,0
2018-01-17T06:38:22.055Z,0
2018-01-17T06:39:43.666Z,0
2018-01-17T06:41:05.913Z,0
2018-01-17T06:42:27.516Z,0
2018-01-17T06:43:49.622Z,0
2018-01-17T06:45:11.805Z,0
2018-01-17T06:46:34.017Z,0
2018-01-17T06:47:55.613Z,0
2018-01-17T06:49:17.520Z,0
2018-01-17T06:50:39.496Z,0
2018-01-17T06:52:01.624Z,0
2018-01-17T06:53:23.233Z,0
2018-01-17T06:54:44.917Z,0
2018-01-17T06:56:06.540Z,0
2018-01-17T06:57:28.409Z,0
2018-01-17T06:58:50.507Z,0
2018-01-17T07:00:11.840Z,0
2018-01-17T07:01:33.997Z,0
2018-01-17T07:02:55.898Z,0
2018-01-17T07:04:17.742Z,0
2018-01-17T07:05:39.592Z,0
2018-01-17T07:07:01.503Z,0
2018-01-17T07:08:23.404Z,0
2018-01-17T07:09:45.163Z,0
2018-01-17T07:11:07.014Z,0
2018-01-17T07:12:28.902Z,0
2018-01-17T07:13:51.012Z,0
2018-01-17T07:15:12.997Z,0
2018-01-17T07:16:34.626Z,0
2018-01-17T07:17:56.233Z,0
2018-01-17T07:19:17.848Z,0
2018-01-17T07:20:39.951Z,0
2018-01-17T07:22:02.081Z,0
2018-01-17T07:23:23.423Z,0
2018-01-17T07:24:45.515Z,0
2018-01-17T07:26:07.642Z,0
2018-01-17T07:27:29.319Z,0
2018-01-17T07:28:51.423Z,0
2018-01-17T07:30:13.557Z,0
2018-01-17T07:31:35.379Z,0
2018-01-17T07:32:56.844Z,0
2018-01-17T07:34:18.718Z,5
2018-01-17T07:35:40.310Z,5
2018-01-17T07:37:01.660Z,5
2018-01-17T07:38:23.265Z,5
2018-01-17T07:39:45.138Z,10
2018-01-17T07:41:06.490Z,10
2018-01-17T07:42:28.078Z,10
2018-01-17T07:43:49.915Z,10
2018-01-17T07:45:11.624Z,15
2018-01-17T07:46:33.242Z,15
2018-01-17T07:47:55.127Z,10
2018-01-17T07:49:16.605Z,10
2018-01-17T07:50:38.264Z,15
2018-01-17T07:51:59.893Z,15
2018-01-17T07:53:21.877Z,20
2018-01-17T07:54:43.993Z,15
2018-01-17T07:56:05.929Z,15
2018-01-17T07:57:28.046Z,15
2018-01-17T07:58:50.171Z,20
2018-01-17T08:00:12.287Z,20
2018-01-17T08:01:33.906Z,20
2018-01-17T08:02:56.133Z,25
2018-01-17T08:04:17.800Z,25
2018-01-17T08:05:39.909Z,30
2018-01-17T08:07:01.841Z,30
2018-01-17T08:08:23.693Z,30
2018-01-17T08:09:45.537Z,25
2018-01-17T08:11:07.678Z,25
2018-01-17T08:12:29.952Z,30
2018-01-17T08:13:51.803Z,30
2018-01-17T08:15:13.922Z,25
2018-01-17T08:16:35.789Z,20
2018-01-17T08:17:57.913Z,25
2018-01-17T08:19:20.038Z,30
2018-01-17T08:20:41.951Z,35
2018-01-17T08:22:04.125Z,30
2018-01-17T08:23:25.749Z,45
2018-01-17T08:24:47.862Z,45
2018-01-17T08:26:09.725Z,45
2018-01-17T08:27:31.567Z,45
2018-01-17T08:28:53.703Z,45
2018-01-17T08:30:15.560Z,50
2018-01-17T08:31:37.776Z,55
2018-01-17T08:32:59.624Z,65
2018-01-17T08:34:21.217Z,65
2018-01-17T08:35:43.353Z,70
2018-01-17T08:37:05.286Z,75
2018-01-17T08:38:27.422Z,65
2018-01-17T08:39:49.544Z,75
2018-01-17T08:41:11.177Z,70
2018-01-17T08:42:32.358Z,65
2018-01-17T08:43:53.816Z,70
2018-01-17T08:45:15.423Z,70
2018-01-17T08:46:37.137Z,55
2018-01-17T08:47:59.005Z,65
2018-01-17T08:49:20.861Z,70
2018-01-17T08:50:42.447Z,60
2018-01-17T08:52:04.083Z,65
2018-01-17T08:53:25.968Z,55
2018-01-17T08:54:47.571Z,55
2018-01-17T08:56:09.403Z,55
2018-01-17T08:57:31.287Z,65
2018-01-17T08:58:53.438Z,70
2018-01-17T09:00:15.477Z,70
2018-01-17T09:01:37.063Z,75
2018-01-17T09:02:58.640Z,75
2018-01-17T09:04:20.767Z,80
2018-01-17T09:05:42.612Z,85
2018-01-17T09:07:04.455Z,85
2018-01-17T09:08:26.642Z,90
2018-01-17T09:09:48.747Z,90
2018-01-17T09:11:10.614Z,95
2018-01-17T09:12:32.264Z,95
2018-01-17T09:13:53.347Z,100
2018-01-17T09:15:15.365Z,100
2018-01-17T09:16:36.691Z,110
2018-01-17T09:17:58.552Z,120
2018-01-17T09:19:20.404Z,115
2018-01-17T09:20:42.278Z,115
2018-01-17T09:22:03.879Z,115
2018-01-17T09:23:25.838Z,115
2018-01-17T09:24:47.954Z,110
2018-01-17T09:26:09.880Z,110
2018-01-17T09:27:32.002Z,110
2018-01-17T09:28:53.905Z,110
2018-01-17T09:30:15.512Z,115
2018-01-17T09:31:37.407Z,120
2018-01-17T09:32:59.356Z,120
2018-01-17T09:34:20.946Z,120
2018-01-17T09:35:42.829Z,120
2018-01-17T09:37:04.682Z,110
2018-01-17T09:38:26.569Z,100
2018-01-17T09:39:47.899Z,90
2018-01-17T09:41:09.493Z,85
2018-01-17T09:42:31.614Z,85
2018-01-17T09:43:53.935Z,80
2018-01-17T09:45:15.848Z,75
2018-01-17T09:46:38.057Z,65
2018-01-17T09:48:00.407Z,70
2018-01-17T09:49:22.320Z,80
2018-01-17T09:50:44.049Z,80
2018-01-17T09:52:05.772Z,90
2018-01-17T09:53:26.891Z,100
2018-01-17T09:54:48.781Z,105
2018-01-17T09:56:10.632Z,110
2018-01-17T09:57:32.482Z,115
2018-01-17T09:58:54.376Z,120
2018-01-17T10:00:16.250Z,125
2018-01-17T10:01:38.455Z,125
2018-01-17T10:02:59.774Z,125
2018-01-17T10:04:21.124Z,120
2018-01-17T10:05:43.033Z,130
2018-01-17T10:07:05.176Z,115
2018-01-17T10:08:27.032Z,130
2018-01-17T10:09:48.656Z,130
2018-01-17T10:11:10.513Z,130
2018-01-17T10:12:32.477Z,130
2018-01-17T10:13:54.422Z,130
2018-01-17T10:15:16.328Z,130
2018-01-17T10:16:38.031Z,135
2018-01-17T10:17:59.981Z,125
2018-01-17T10:19:21.934Z,125
2018-01-17T10:20:44.183Z,125
2018-01-17T10:22:05.838Z,125
2018-01-17T10:23:27.774Z,120
2018-01-17T10:24:49.890Z,120
2018-01-17T10:26:12.036Z,120
2018-01-17T10:27:33.666Z,115
2018-01-17T10:28:55.272Z,110
2018-01-17T10:30:16.862Z,110
2018-01-17T10:31:38.459Z,105
2018-01-17T10:33:00.163Z,105
2018-01-17T10:34:22.046Z,105
2018-01-17T10:35:43.939Z,125
2018-01-17T10:37:05.803Z,125
2018-01-17T10:38:27.910Z,120
2018-01-17T10:39:49.797Z,115
2018-01-17T10:41:11.723Z,105
2018-01-17T10:42:33.399Z,120
2018-01-17T10:43:55.568Z,145
2018-01-17T10:45:17.432Z,160
2018-01-17T10:46:39.559Z,170
2018-01-17T10:48:01.666Z,205
2018-01-17T10:49:23.650Z,210
2018-01-17T10:50:45.299Z,235
2018-01-17T10:52:07.179Z,235
2018-01-17T10:53:29.121Z,240
2018-01-17T10:54:51.251Z,255
2018-01-17T10:56:13.130Z,255
2018-01-17T10:57:34.196Z,285
2018-01-17T10:58:56.066Z,285
2018-01-17T11:00:17.922Z,280
2018-01-17T11:01:39.932Z,295
2018-01-17T11:03:01.893Z,255
2018-01-17T11:04:23.761Z,230
2018-01-17T11:05:45.359Z,230
2018-01-17T11:07:07.498Z,245
2018-01-17T11:08:29.233Z,225
2018-01-17T11:09:50.916Z,255
2018-01-17T11:11:12.494Z,275
2018-01-17T11:12:34.096Z,275
2018-01-17T11:13:55.725Z,265
2018-01-17T11:15:17.571Z,265
2018-01-17T11:16:39.442Z,275
2018-01-17T11:18:01.646Z,275
2018-01-17T11:19:23.781Z,260
2018-01-17T11:20:45.396Z,245
2018-01-17T11:22:07.275Z,200
2018-01-17T11:23:28.993Z,150
2018-01-17T11:24:51.202Z,195
2018-01-17T11:26:12.825Z,235
2018-01-17T11:27:35.126Z,250
2018-01-17T11:28:57.017Z,245
2018-01-17T11:30:19.144Z,225
2018-01-17T11:31:40.744Z,240
2018-01-17T11:33:02.925Z,215
2018-01-17T11:34:24.622Z,185
2018-01-17T11:35:46.009Z,170
2018-01-17T11:37:08.004Z,165
2018-01-17T11:38:30.177Z,190
2018-01-17T11:39:52.161Z,180
2018-01-17T11:41:14.091Z,195
2018-01-17T11:42:35.952Z,175
2018-01-17T11:43:57.436Z,145
2018-01-17T11:45:19.041Z,125
2018-01-17T11:46:41.260Z,130
2018-01-17T11:48:03.422Z,115
2018-01-17T11:49:25.074Z,115
2018-01-17T11:50:46.969Z,120
2018-01-17T11:52:08.659Z,125
2018-01-17T11:53:30.538Z,120
2018-01-17T11:54:52.677Z,120
2018-01-17T11:56:14.586Z,115
2018-01-17T11:57:36.480Z,115
2018-01-17T11:58:58.342Z,115
2018-01-17T12:00:20.234Z,125
2018-01-17T12:01:42.382Z,135
2018-01-17T12:03:04.352Z,140
2018-01-17T12:04:25.980Z,160
2018-01-17T12:05:47.865Z,160
2018-01-17T12:07:09.857Z,160
2018-01-17T12:08:31.211Z,165
2018-01-17T12:09:52.829Z,175
2018-01-17T12:11:14.797Z,185
2018-01-17T12:12:36.387Z,190
2018-01-17T12:13:58.527Z,195
2018-01-17T12:15:20.162Z,185
2018-01-17T12:16:41.763Z,180
2018-01-17T12:18:03.623Z,175
2018-01-17T12:19:25.757Z,165
2018-01-17T12:20:47.619Z,155
2018-01-17T12:22:08.978Z,145
2018-01-17T12:23:30.856Z,125
2018-01-17T12:24:53.037Z,100
2018-01-17T12:26:15.141Z,80
2018-01-17T12:27:36.993Z,85
2018-01-17T12:28:59.302Z,90
2018-01-17T12:30:21.161Z,85
2018-01-17T12:31:43.151Z,65
2018-01-17T12:33:05.132Z,65
2018-01-17T12:34:26.770Z,60
2018-01-17T12:35:48.431Z,60
2018-01-17T12:37:10.563Z,75
2018-01-17T12:38:32.172Z,95
2018-01-17T12:39:53.894Z,85
2018-01-17T12:41:16.113Z,100
2018-01-17T12:42:37.786Z,115
2018-01-17T12:43:59.357Z,115
2018-01-17T12:45:21.488Z,110
2018-01-17T12:46:42.904Z,90
2018-01-17T12:48:04.512Z,75
2018-01-17T12:49:26.362Z,85
2018-01-17T12:50:48.234Z,105
2018-01-17T12:52:10.096Z,125
2018-01-17T12:53:32.030Z,100
2018-01-17T12:54:53.680Z,110
2018-01-17T12:56:15.295Z,140
2018-01-17T12:57:36.644Z,175
2018-01-17T12:58:58.507Z,185
2018-01-17T13:00:20.719Z,190
2018-01-17T13:01:42.894Z,160
2018-01-17T13:03:04.853Z,110
2018-01-17T13:04:26.839Z,80
2018-01-17T13:05:48.960Z,90
2018-01-17T13:07:10.637Z,90
2018-01-17T13:08:32.790Z,55
2018-01-17T13:09:54.685Z,50
2018-01-17T13:11:16.372Z,45
2018-01-17T13:12:38.687Z,35
2018-01-17T13:14:00.982Z,30
2018-01-17T13:15:22.734Z,30
2018-01-17T13:16:44.877Z,30
2018-01-17T13:18:06.766Z,50
2018-01-17T13:19:28.953Z,65
2018-01-17T13:20:51.064Z,90
2018-01-17T13:22:13.151Z,85
2018-01-17T13:23:35.003Z,110
2018-01-17T13:24:56.864Z,85
2018-01-17T13:26:18.732Z,75
2018-01-17T13:27:40.710Z,90
2018-01-17T13:29:02.333Z,85
2018-01-17T13:30:24.299Z,45
2018-01-17T13:31:45.908Z,60
2018-01-17T13:33:07.818Z,85
2018-01-17T13:34:29.835Z,100
2018-01-17T13:35:51.734Z,95
2018-01-17T13:37:13.614Z,70
2018-01-17T13:38:34.957Z,75
2018-01-17T13:39:56.865Z,85
2018-01-17T13:41:18.761Z,90
2018-01-17T13:42:40.679Z,100
2018-01-17T13:44:02.682Z,100
2018-01-17T13:45:24.824Z,90
2018-01-17T13:46:46.431Z,80
2018-01-17T13:48:08.553Z,70
2018-01-17T13:49:30.158Z,75
2018-01-17T13:50:52.135Z,70
2018-01-17T13:52:14.276Z,55
2018-01-17T13:53:36.196Z,45
2018-01-17T13:54:57.813Z,50
2018-01-17T13:56:19.684Z,45
2018-01-17T13:57:41.851Z,30
2018-01-17T13:59:03.513Z,30
2018-01-17T14:00:25.685Z,30
2018-01-17T14:01:47.301Z,35
2018-01-17T14:03:08.705Z,40
2018-01-17T14:04:30.632Z,45
2018-01-17T14:05:52.542Z,45
2018-01-17T14:07:14.513Z,50
2018-01-17T14:08:36.497Z,50
2018-01-17T14:09:58.656Z,50
2018-01-17T14:11:20.511Z,45
2018-01-17T14:12:42.431Z,45
2018-01-17T14:14:04.654Z,50
2018-01-17T14:15:26.515Z,60
2018-01-17T14:16:48.407Z,60
2018-01-17T14:18:10.273Z,60
2018-01-17T14:19:32.173Z,40
2018-01-17T14:20:54.303Z,35
2018-01-17T14:22:16.498Z,35
2018-01-17T14:23:38.641Z,35
2018-01-17T14:25:00.568Z,30
2018-01-17T14:26:22.789Z,30
2018-01-17T14:27:44.692Z,30
2018-01-17T14:29:06.846Z,25
2018-01-17T14:30:28.743Z,20
2018-01-17T14:31:50.695Z,20
2018-01-17T14:33:12.981Z,20
2018-01-17T14:34:34.844Z,25
2018-01-17T14:35:56.245Z,20
2018-01-17T14:37:18.186Z,25
2018-01-17T14:38:40.415Z,30
2018-01-17T14:40:02.263Z,25
2018-01-17T14:41:24.442Z,25
2018-01-17T14:42:46.703Z,25
2018-01-17T14:44:08.372Z,25
2018-01-17T14:45:30.596Z,30
2018-01-17T14:46:52.785Z,30
2018-01-17T14:48:14.904Z,30
2018-01-17T14:49:37.086Z,25
2018-01-17T14:50:58.708Z,25
2018-01-17T14:52:20.659Z,25
2018-01-17T14:53:42.602Z,25
2018-01-17T14:55:04.759Z,20
2018-01-17T14:56:26.739Z,20
2018-01-17T14:57:48.903Z,25
2018-01-17T14:59:11.167Z,25
2018-01-17T15:00:33.296Z,20
2018-01-17T15:01:54.895Z,20
2018-01-17T15:03:16.532Z,20
2018-01-17T15:04:38.418Z,20
2018-01-17T15:06:00.466Z,20
2018-01-17T15:07:22.334Z,15
2018-01-17T15:08:44.256Z,15
2018-01-17T15:10:06.163Z,15
2018-01-17T15:11:28.887Z,15
2018-01-17T15:12:50.563Z,15
2018-01-17T15:14:12.789Z,15
2018-01-17T15:15:34.668Z,15
2018-01-17T15:16:56.784Z,20
2018-01-17T15:18:18.426Z,20
2018-01-17T15:19:40.655Z,20
2018-01-17T15:21:02.274Z,20
2018-01-17T15:22:24.408Z,15
2018-01-17T15:23:46.002Z,15
2018-01-17T15:25:08.176Z,15
2018-01-17T15:26:30.320Z,10
2018-01-17T15:27:52.455Z,10
2018-01-17T15:29:14.054Z,5
2018-01-17T15:30:35.944Z,5
2018-01-17T15:31:57.922Z,0
2018-01-17T15:33:19.816Z,0
2018-01-17T15:34:41.721Z,0
2018-01-17T15:36:03.607Z,0
2018-01-17T15:37:25.738Z,0
2018-01-17T15:38:48.119Z,0
2018-01-17T15:40:10.260Z,0
2018-01-17T15:41:32.424Z,0
2018-01-17T15:42:54.556Z,0
2018-01-17T15:44:16.690Z,0
2018-01-17T15:45:38.565Z,0
2018-01-17T15:47:00.727Z,0
2018-01-17T15:48:22.857Z,0
2018-01-17T15:49:45.073Z,0
2018-01-17T15:51:06.758Z,0
2018-01-17T15:52:28.673Z,0
2018-01-17T15:53:50.829Z,0
2018-01-17T15:55:13.315Z,0
2018-01-17T15:56:35.564Z,0
2018-01-17T15:57:57.715Z,0
2018-01-17T15:59:19.628Z,0
2018-01-17T16:00:41.628Z,0
2018-01-17T16:02:03.471Z,0
2018-01-17T16:03:25.347Z,0
2018-01-17T16:04:47.560Z,0
2018-01-17T16:06:09.418Z,0
2018-01-17T16:07:31.600Z,0
2018-01-17T16:08:53.751Z,0
2018-01-17T16:10:15.642Z,0
2018-01-17T16:11:37.819Z,0
2018-01-17T16:12:59.986Z,0
2018-01-17T16:14:21.884Z,0
2018-01-17T16:15:43.855Z,0
2018-01-17T16:17:06.021Z,0
2018-01-17T16:18:27.931Z,0
2018-01-17T16:19:50.174Z,0
2018-01-17T16:21:12.080Z,0
2018-01-17T16:22:33.978Z,0
2018-01-17T16:23:55.927Z,0
2018-01-17T16:25:17.617Z,0
2018-01-17T16:26:39.825Z,0
2018-01-17T16:28:01.763Z,0
2018-01-17T16:29:23.947Z,0
2018-01-17T16:30:46.068Z,0
2018-01-17T16:32:07.961Z,0
2018-01-17T16:33:30.077Z,0
2018-01-17T16:34:52.356Z,0
2018-01-17T16:36:14.623Z,0
2018-01-17T16:37:36.620Z,0
2018-01-17T16:38:58.843Z,0
2018-01-17T16:40:20.782Z,0
2018-01-17T16:41:42.649Z,0
2018-01-17T16:43:04.871Z,0
2018-01-17T16:44:26.798Z,0
2018-01-17T16:45:48.746Z,0
2018-01-17T16:47:10.383Z,0
2018-01-17T16:48:32.088Z,0
2018-01-17T16:49:54.283Z,0
2018-01-17T16:51:16.432Z,0
2018-01-17T16:52:38.468Z,0
2018-01-17T16:54:00.618Z,0
2018-01-17T16:55:22.928Z,0
2018-01-17T16:56:45.256Z,0
2018-01-17T16:58:07.488Z,0
2018-01-17T16:59:29.385Z,0
2018-01-17T17:00:51.317Z,0
2018-01-17T17:02:13.506Z,0
2018-01-17T17:03:35.687Z,0
2018-01-17T17:04:57.914Z,0
2018-01-17T17:06:19.522Z,0
2018-01-17T17:07:41.427Z,0
2018-01-17T17:09:03.672Z,0
2018-01-17T17:10:25.917Z,0
2018-01-17T17:11:48.125Z,0
2018-01-17T17:13:10.295Z,0
2018-01-17T17:14:32.174Z,0
2018-01-17T17:15:54.533Z,0
2018-01-17T17:17:16.197Z,0
2018-01-17T17:18:38.126Z,0
2018-01-17T17:20:00.288Z,0
2018-01-17T17:21:22.199Z,0
2018-01-17T17:22:44.512Z,0
2018-01-17T17:24:05.889Z,0
2018-01-17T17:25:28.043Z,0
2018-01-17T17:26:50.023Z,0
2018-01-17T17:28:11.500Z,0
2018-01-17T17:29:33.694Z,0
2018-01-17T17:30:55.327Z,0
2018-01-17T17:32:17.592Z,0
2018-01-17T17:33:39.882Z,0
2018-01-17T17:35:01.498Z,0
2018-01-17T17:36:23.812Z,0
2018-01-17T17:37:45.696Z,0
2018-01-17T17:39:07.594Z,0
2018-01-17T17:40:29.762Z,0
2018-01-17T17:41:51.449Z,0
2018-01-17T17:43:13.745Z,0
2018-01-17T17:44:36.408Z,0
2018-01-17T17:45:58.551Z,0
2018-01-17T17:47:20.984Z,0
2018-01-17T17:48:42.867Z,0
2018-01-17T17:50:05.047Z,0
2018-01-17T17:51:27.384Z,0
2018-01-17T17:52:49.516Z,0
2018-01-17T17:54:11.412Z,0
2018-01-17T17:55:33.536Z,0
2018-01-17T17:56:55.697Z,0
2018-01-17T17:58:17.662Z,0
2018-01-17T17:59:39.807Z,0
2018-01-17T18:01:02.022Z,0
2018-01-17T18:02:23.911Z,0
2018-01-17T18:03:46.184Z,0
2018-01-17T18:05:07.817Z,0
2018-01-17T18:06:29.805Z,0
2018-01-17T18:07:51.877Z,0
2018-01-17T18:09:13.762Z,0
2018-01-17T18:10:35.883Z,0
2018-01-17T18:11:57.521Z,0
2018-01-17T18:13:19.864Z,0
2018-01-17T18:14:41.998Z,0
2018-01-17T18:16:04.215Z,0
2018-01-17T18:17:26.627Z,0
2018-01-17T18:18:48.768Z,0
2018-01-17T18:20:10.650Z,0
2018-01-17T18:21:32.306Z,0
2018-01-17T18:22:53.659Z,0
2018-01-17T18:24:15.802Z,0
2018-01-17T18:25:37.687Z,0
2018-01-17T18:26:59.973Z,0
2018-01-17T18:28:21.873Z,0
2018-01-17T18:29:43.818Z,0
2018-01-17T18:31:05.961Z,0
2018-01-17T18:32:27.592Z,0
2018-01-17T18:33:49.754Z,0
2018-01-17T18:35:11.919Z,0
2018-01-17T18:36:33.847Z,0
2018-01-17T18:37:55.994Z,0
2018-01-17T18:39:17.877Z,0
2018-01-17T18:40:40.048Z,0
2018-01-17T18:42:02.179Z,0
2018-01-17T18:43:24.435Z,0
2018-01-17T18:44:46.072Z,0
2018-01-17T18:46:08.347Z,0
2018-01-17T18:47:30.723Z,0
2018-01-17T18:48:52.870Z,0
2018-01-17T18:50:14.799Z,0
2018-01-17T18:51:36.948Z,0
2018-01-17T18:52:59.109Z,0
2018-01-17T18:54:20.777Z,0
2018-01-17T18:55:42.407Z,0
2018-01-17T18:57:04.304Z,0
2018-01-17T18:58:26.201Z,0
2018-01-17T18:59:48.374Z,0
2018-01-17T19:01:10.399Z,0
2018-01-17T19:02:32.325Z,0
2018-01-17T19:03:54.346Z,0
2018-01-17T19:05:16.633Z,0
2018-01-17T19:06:38.265Z,0
2018-01-17T19:08:00.539Z,0
2018-01-17T19:09:22.430Z,0
2018-01-17T19:10:44.575Z,0
2018-01-17T19:12:06.235Z,0
2018-01-17T19:13:28.273Z,0
2018-01-17T19:14:50.226Z,0
2018-01-17T19:16:12.455Z,0
2018-01-17T19:17:34.948Z,0
2018-01-17T19:18:57.104Z,0
2018-01-17T19:20:18.695Z,0
2018-01-17T19:21:40.595Z,0
2018-01-17T19:23:02.572Z,0
2018-01-17T19:24:24.499Z,0
2018-01-17T19:25:46.659Z,0
2018-01-17T19:27:08.838Z,0
2018-01-17T19:28:30.977Z,0
2018-01-17T19:29:52.911Z,0
2018-01-17T19:31:15.054Z,0
2018-01-17T19:32:37.209Z,0
2018-01-17T19:33:59.080Z,0
2018-01-17T19:35:21.137Z,0
2018-01-17T19:36:43.064Z,0
2018-01-17T19:38:04.953Z,0
2018-01-17T19:39:26.857Z,0
2018-01-17T19:40:48.609Z,0
2018-01-17T19:42:10.876Z,0
2018-01-17T19:43:33.023Z,0
2018-01-17T19:44:55.154Z,0
2018-01-17T19:46:17.120Z,0